Maldives Meteorological Service

TAFS

Station TAF
VRMM
VRMM 280500Z 2806/2912 08010KT 9000 FEW019=
VRMH
VRMH 280500Z 2806/2912 05007KT 9999 FEW019=
VRMK
VRMK 280500Z 2806/2906 02007KT 9999 FEW019=
VRMT
VRMT 280500Z 2806/2906 02006KT 9999 FEW018 TEMPO 2806/2812 FEW019CB=
VRMG
VRMG 280500Z 2806/2912 04006KT 9000 FEW018 TEMPO 2806/2812 FEW018CB=